Time;durP1;ratioP1;P1;durP2;ratioP2;P2;SDS_P1;SDS_P2;PMS_P1;PMS_P2;Temp;Humidity;BMP_temperature;BMP_pressure;BME280_temperature;BME280_humidity;BME280_pressure;Samples;Min_cycle;Max_cycle;Signal;HPM_P1;HPM_P2
2023/02/22 00:02:33;;;;;;;58.47;17.37;;;;;4.90;100945.00;;;;9975981;29;20208;-77
2023/02/22 00:07:34;;;;;;;31.00;13.60;;;;;4.90;100949.00;;;;10004995;29;20194;-76
2023/02/22 00:12:36;;;;;;;38.40;13.43;;;;;4.80;100941.00;;;;10010875;29;20201;-77
2023/02/22 00:17:39;;;;;;;41.40;14.43;;;;;4.70;100949.00;;;;10043868;29;20596;-77
2023/02/22 00:22:43;;;;;;;35.77;14.30;;;;;4.70;100937.00;;;;10023198;29;21953;-77
2023/02/22 00:27:48;;;;;;;42.67;14.23;;;;;4.70;100935.00;;;;10022909;29;20583;-77
2023/02/22 00:32:54;;;;;;;43.63;14.00;;;;;4.70;100939.00;;;;10064800;29;20201;-77
2023/02/22 00:37:59;;;;;;;36.30;13.33;;;;;4.70;100934.00;;;;10023061;29;20700;-77
2023/02/22 00:43:03;;;;;;;38.40;12.90;;;;;4.70;100938.00;;;;10041863;29;20213;-77
2023/02/22 00:48:06;;;;;;;28.40;11.80;;;;;4.60;100924.00;;;;10000220;29;20595;-77
2023/02/22 00:53:10;;;;;;;30.90;11.87;;;;;4.50;100931.00;;;;10019714;29;20276;-77
2023/02/22 00:58:12;;;;;;;28.17;11.67;;;;;4.50;100923.00;;;;10048140;29;20223;-77
2023/02/22 01:03:17;;;;;;;22.80;10.53;;;;;4.50;100917.00;;;;10022450;29;20534;-77
2023/02/22 01:08:18;;;;;;;30.37;11.97;;;;;4.50;100896.00;;;;10044762;29;20200;-77
2023/02/22 01:13:21;;;;;;;19.73;9.93;;;;;4.50;100900.00;;;;10028866;29;20221;-78
2023/02/22 01:18:24;;;;;;;27.67;10.83;;;;;4.40;100893.00;;;;10021876;29;20680;-77
2023/02/22 01:23:27;;;;;;;17.50;8.00;;;;;4.40;100879.00;;;;10021908;29;20273;-77
2023/02/22 01:28:32;;;;;;;19.37;9.17;;;;;4.30;100885.00;;;;10039162;29;20233;-77
2023/02/22 01:33:36;;;;;;;17.73;8.00;;;;;4.30;100886.00;;;;10029014;29;20304;-77
2023/02/22 01:38:38;;;;;;;14.37;7.30;;;;;4.30;100879.00;;;;10021316;29;20193;-77
2023/02/22 01:43:40;;;;;;;10.83;5.93;;;;;4.30;100873.00;;;;10004592;29;20250;-77
2023/02/22 01:48:46;;;;;;;10.90;5.13;;;;;4.20;100873.00;;;;10021181;29;20684;-77
2023/02/22 01:54:02;;;;;;;8.87;5.70;;;;;4.20;100858.00;;;;10052182;29;20201;-77
2023/02/22 01:59:09;;;;;;;13.63;7.27;;;;;4.10;100856.00;;;;10019370;29;20201;-77
2023/02/22 02:04:24;;;;;;;12.67;7.33;;;;;4.10;100849.00;;;;10013591;29;20285;-77
2023/02/22 02:10:03;;;;;;;12.83;7.47;;;;;4.00;100839.00;;;;9987333;29;20223;-77
2023/02/22 02:15:34;;;;;;;10.80;5.50;;;;;4.10;100843.00;;;;10035022;29;20425;-77
2023/02/22 02:20:45;;;;;;;12.50;6.53;;;;;4.00;100846.00;;;;10020256;29;20249;-77
2023/02/22 02:26:18;;;;;;;9.80;6.33;;;;;4.00;100833.00;;;;10036905;29;20272;-77
2023/02/22 02:32:01;;;;;;;11.73;6.33;;;;;4.00;100822.00;;;;10076269;29;20252;-77
2023/02/22 02:37:26;;;;;;;11.43;5.97;;;;;4.00;100812.00;;;;10066797;29;20728;-77
2023/02/22 02:42:35;;;;;;;15.10;6.97;;;;;3.90;100798.00;;;;10041548;29;20216;-77
2023/02/22 02:47:44;;;;;;;11.13;5.30;;;;;3.90;100793.00;;;;10053929;29;20288;-77
2023/02/22 02:52:47;;;;;;;8.00;5.00;;;;;3.90;100786.00;;;;10025614;29;20201;-77
2023/02/22 02:57:49;;;;;;;8.70;5.83;;;;;3.80;100790.00;;;;10021718;29;20218;-77
2023/02/22 03:03:16;;;;;;;7.47;4.03;;;;;3.70;100776.00;;;;10033461;29;20292;-77
2023/02/22 03:08:24;;;;;;;7.63;3.83;;;;;3.60;100777.00;;;;10056350;29;20200;-77
2023/02/22 03:13:29;;;;;;;8.23;4.07;;;;;3.50;100782.00;;;;10040353;29;20695;-77
2023/02/22 03:18:43;;;;;;;12.07;5.93;;;;;3.40;100771.00;;;;10031584;29;20241;-77
2023/02/22 03:24:08;;;;;;;8.43;5.30;;;;;3.30;100757.00;;;;10045820;29;20273;-77
2023/02/22 03:29:14;;;;;;;10.43;5.80;;;;;3.30;100749.00;;;;10019114;29;20212;-77
2023/02/22 03:34:24;;;;;;;10.63;6.23;;;;;3.20;100745.00;;;;10049867;29;20208;-77
2023/02/22 03:39:32;;;;;;;12.60;6.53;;;;;3.20;100741.00;;;;10046366;29;20235;-77
2023/02/22 03:44:37;;;;;;;9.30;5.80;;;;;3.10;100734.00;;;;10018996;29;20205;-77
2023/02/22 03:50:05;;;;;;;8.13;6.30;;;;;3.00;100730.00;;;;10032160;29;20261;-77
2023/02/22 03:55:10;;;;;;;7.70;5.10;;;;;2.90;100723.00;;;;10040231;29;20261;-77
2023/02/22 04:00:17;;;;;;;10.27;6.00;;;;;2.90;100724.00;;;;10000215;29;20697;-76
2023/02/22 04:05:19;;;;;;;10.17;4.47;;;;;2.90;100713.00;;;;9986125;29;20205;-77
2023/02/22 04:10:22;;;;;;;9.77;5.23;;;;;2.90;100721.00;;;;10015640;29;20553;-77
2023/02/22 04:15:25;;;;;;;9.97;6.37;;;;;2.90;100710.00;;;;10045667;29;20284;-77
2023/02/22 04:20:33;;;;;;;8.90;6.17;;;;;2.90;100708.00;;;;10039755;29;20197;-77
2023/02/22 04:25:43;;;;;;;13.70;7.37;;;;;2.90;100692.00;;;;10004912;29;20223;-77
2023/02/22 04:30:46;;;;;;;10.27;6.07;;;;;2.90;100695.00;;;;10034986;29;20673;-77
2023/02/22 04:35:51;;;;;;;13.17;5.83;;;;;2.90;100688.00;;;;10053275;29;20216;-77
2023/02/22 04:40:53;;;;;;;10.30;6.03;;;;;2.90;100689.00;;;;10022172;29;20269;-77
2023/02/22 04:45:55;;;;;;;7.03;3.83;;;;;2.80;100683.00;;;;10021571;29;20201;-77
2023/02/22 04:50:57;;;;;;;9.40;4.97;;;;;2.80;100667.00;;;;10052072;29;20201;-77
2023/02/22 04:56:02;;;;;;;17.63;7.77;;;;;2.80;100659.00;;;;10033470;29;20209;-77
2023/02/22 05:01:05;;;;;;;7.57;4.93;;;;;2.80;100655.00;;;;10001128;29;20205;-77
2023/02/22 05:06:07;;;;;;;7.70;5.23;;;;;2.80;100654.00;;;;10025381;29;20249;-77
2023/02/22 05:11:09;;;;;;;9.40;5.90;;;;;2.80;100652.00;;;;10036503;29;20212;-77
2023/02/22 05:16:12;;;;;;;11.03;5.37;;;;;2.90;100654.00;;;;10020175;29;20217;-77
2023/02/22 05:21:14;;;;;;;11.83;6.73;;;;;2.80;100644.00;;;;10036967;29;20561;-77
2023/02/22 05:26:16;;;;;;;10.87;7.20;;;;;2.80;100636.00;;;;9999758;29;20221;-77
2023/02/22 05:31:18;;;;;;;7.53;4.87;;;;;2.80;100637.00;;;;10010708;29;20211;-77
2023/02/22 05:36:20;;;;;;;12.20;6.63;;;;;2.80;100627.00;;;;10033111;29;20261;-77
2023/02/22 05:41:22;;;;;;;9.97;5.90;;;;;2.70;100631.00;;;;10016785;29;20236;-77
2023/02/22 05:46:24;;;;;;;11.20;5.73;;;;;2.70;100627.00;;;;10035624;29;20235;-77
2023/02/22 05:51:26;;;;;;;13.20;5.97;;;;;2.70;100634.00;;;;10021456;29;20201;-77
2023/02/22 05:56:29;;;;;;;7.00;4.57;;;;;2.70;100623.00;;;;10021198;29;20262;-77
2023/02/22 06:01:31;;;;;;;10.60;5.93;;;;;2.70;100619.00;;;;10005650;29;20231;-77
2023/02/22 06:06:33;;;;;;;13.77;6.40;;;;;2.70;100601.00;;;;10043528;29;20580;-77
2023/02/22 06:11:36;;;;;;;10.20;5.60;;;;;2.80;100621.00;;;;10026487;29;20550;-77
2023/02/22 06:16:37;;;;;;;7.90;4.77;;;;;2.80;100602.00;;;;10042367;29;20242;-77
2023/02/22 06:21:40;;;;;;;9.67;4.60;;;;;2.80;100581.00;;;;10050454;29;20205;-77
2023/02/22 06:26:42;;;;;;;8.17;4.87;;;;;2.80;100590.00;;;;10020481;29;20312;-77
2023/02/22 06:31:44;;;;;;;7.33;4.50;;;;;2.80;100594.00;;;;10027262;29;20207;-77
2023/02/22 06:36:47;;;;;;;8.37;4.57;;;;;2.80;100594.00;;;;10070844;29;20688;-77
2023/02/22 06:41:50;;;;;;;7.73;4.77;;;;;2.80;100589.00;;;;10058012;29;20228;-77
2023/02/22 06:46:52;;;;;;;5.17;4.53;;;;;2.70;100588.00;;;;10030491;29;21886;-76
2023/02/22 06:51:54;;;;;;;6.03;4.33;;;;;2.70;100594.00;;;;10022399;29;20283;-77
2023/02/22 06:56:55;;;;;;;7.63;4.03;;;;;2.70;100610.00;;;;10012107;29;20214;-77
2023/02/22 07:01:58;;;;;;;6.63;4.10;;;;;2.80;100600.00;;;;10034967;29;20657;-77
2023/02/22 07:07:00;;;;;;;6.97;4.77;;;;;2.90;100599.00;;;;10028816;29;20265;-77
2023/02/22 07:12:02;;;;;;;8.27;5.00;;;;;3.00;100599.00;;;;10026348;29;20189;-77
2023/02/22 07:17:03;;;;;;;8.07;4.60;;;;;3.10;100604.00;;;;10000311;29;20233;-77
2023/02/22 07:22:05;;;;;;;5.70;4.10;;;;;3.20;100599.00;;;;10035690;29;20242;-77
2023/02/22 07:27:07;;;;;;;9.20;4.53;;;;;3.30;100589.00;;;;10000280;29;20216;-77
2023/02/22 07:32:09;;;;;;;6.00;4.70;;;;;3.30;100592.00;;;;10036246;29;20204;-77
2023/02/22 07:37:11;;;;;;;7.77;5.27;;;;;3.50;100589.00;;;;10015286;29;20209;-77
2023/02/22 07:42:13;;;;;;;9.73;4.97;;;;;3.70;100582.00;;;;10021624;29;20215;-76
2023/02/22 07:47:15;;;;;;;6.43;4.10;;;;;4.00;100581.00;;;;10017403;29;20201;-77
2023/02/22 07:52:17;;;;;;;12.87;5.17;;;;;4.30;100576.00;;;;10027014;29;20194;-77
2023/02/22 07:57:19;;;;;;;10.10;6.50;;;;;4.70;100563.00;;;;10018695;29;20754;-77
2023/02/22 08:02:20;;;;;;;11.00;6.00;;;;;5.00;100565.00;;;;10042503;29;20201;-77
2023/02/22 08:07:22;;;;;;;11.57;6.03;;;;;5.40;100573.00;;;;10051213;29;20372;-77
2023/02/22 08:12:24;;;;;;;9.40;6.20;;;;;5.80;100568.00;;;;10031208;29;20269;-76
2023/02/22 08:17:26;;;;;;;12.77;6.27;;;;;6.10;100574.00;;;;10044179;29;20220;-77
2023/02/22 08:22:28;;;;;;;8.83;5.83;;;;;6.40;100571.00;;;;10013160;29;20660;-77
2023/02/22 08:27:30;;;;;;;11.07;5.97;;;;;6.70;100557.00;;;;10036239;29;20197;-77
2023/02/22 08:32:34;;;;;;;23.27;6.57;;;;;6.90;100556.00;;;;10017897;29;20210;-77
2023/02/22 08:37:36;;;;;;;13.33;6.90;;;;;7.20;100558.00;;;;10027845;29;20252;-77
2023/02/22 08:42:38;;;;;;;11.90;6.93;;;;;7.50;100551.00;;;;10034140;29;20579;-77
2023/02/22 08:47:41;;;;;;;12.33;6.90;;;;;7.80;100561.00;;;;10046229;29;20218;-77
2023/02/22 08:52:42;;;;;;;15.90;6.93;;;;;8.20;100558.00;;;;10034653;29;20679;-77
2023/02/22 08:57:44;;;;;;;14.87;6.57;;;;;8.50;100560.00;;;;10033321;29;20269;-77
2023/02/22 09:02:46;;;;;;;11.70;7.23;;;;;8.80;100552.00;;;;10019180;29;20197;-77
2023/02/22 09:07:48;;;;;;;10.87;6.53;;;;;8.90;100553.00;;;;10030429;29;20201;-77
2023/02/22 09:12:51;;;;;;;16.23;7.83;;;;;9.00;100558.00;;;;10037642;29;20200;-77
2023/02/22 09:17:53;;;;;;;13.17;6.90;;;;;9.00;100558.00;;;;10036694;29;20213;-77
2023/02/22 09:22:56;;;;;;;17.40;6.97;;;;;8.90;100566.00;;;;10036970;29;20221;-77
2023/02/22 09:27:58;;;;;;;17.60;8.43;;;;;8.60;100561.00;;;;10048165;29;20201;-77
2023/02/22 09:33:05;;;;;;;12.67;7.80;;;;;8.50;100557.00;;;;10053062;29;20398;-77
2023/02/22 09:38:09;;;;;;;17.53;8.70;;;;;8.40;100564.00;;;;10048432;29;20284;-78
2023/02/22 09:43:31;;;;;;;18.50;8.77;;;;;8.50;100575.00;;;;10046109;29;20288;-78
2023/02/22 09:48:38;;;;;;;22.60;11.70;;;;;8.80;100577.00;;;;10032956;29;20228;-78
2023/02/22 09:53:45;;;;;;;22.57;11.83;;;;;8.90;100575.00;;;;10035902;29;20502;-78
2023/02/22 09:58:51;;;;;;;24.57;13.33;;;;;8.80;100580.00;;;;10031354;29;20594;-78
2023/02/22 10:04:21;;;;;;;24.83;14.10;;;;;8.90;100577.00;;;;10035740;29;20235;-78
2023/02/22 10:09:28;;;;;;;23.43;13.30;;;;;9.20;100563.00;;;;10045827;29;20296;-78
2023/02/22 10:14:47;;;;;;;28.93;14.17;;;;;9.50;100576.00;;;;10013130;29;20293;-78
2023/02/22 10:20:24;;;;;;;31.00;15.83;;;;;9.90;100571.00;;;;10008600;29;20234;-78
2023/02/22 10:25:29;;;;;;;34.90;17.03;;;;;10.00;100574.00;;;;10007799;29;20273;-77
2023/02/22 10:30:44;;;;;;;35.80;18.13;;;;;10.20;100573.00;;;;10055754;29;20202;-78
2023/02/22 10:35:47;;;;;;;29.50;17.77;;;;;10.40;100571.00;;;;10028505;29;20240;-78
2023/02/22 10:40:58;;;;;;;34.10;18.83;;;;;10.80;100570.00;;;;10043204;29;20213;-78
2023/02/22 10:46:03;;;;;;;38.93;19.67;;;;;11.30;100568.00;;;;10052548;29;20606;-78
2023/02/22 10:51:08;;;;;;;34.07;19.40;;;;;11.60;100572.00;;;;10006998;29;20650;-77
2023/02/22 10:56:17;;;;;;;32.53;20.67;;;;;12.20;100583.00;;;;10053925;29;20220;-78
2023/02/22 11:01:30;;;;;;;34.57;22.17;;;;;12.50;100572.00;;;;10048403;29;20254;-77
2023/02/22 11:06:33;;;;;;;33.07;21.10;;;;;12.60;100581.00;;;;10041634;29;20201;-77
2023/02/22 11:11:37;;;;;;;34.63;21.10;;;;;12.70;100583.00;;;;10025579;29;20193;-77
2023/02/22 11:16:48;;;;;;;36.17;22.63;;;;;12.80;100589.00;;;;10027673;29;20273;-78
2023/02/22 11:22:20;;;;;;;34.53;21.60;;;;;12.90;100593.00;;;;10041393;29;20649;-77
2023/02/22 11:27:45;;;;;;;29.87;20.00;;;;;12.90;100594.00;;;;10025267;29;20200;-77
2023/02/22 11:33:22;;;;;;;32.57;20.27;;;;;12.70;100593.00;;;;10028043;29;20215;-77
2023/02/22 11:38:27;;;;;;;30.87;20.03;;;;;12.40;100589.00;;;;10045642;29;20217;-78
2023/02/22 11:43:30;;;;;;;31.73;20.73;;;;;12.00;100589.00;;;;10071357;29;20232;-77
2023/02/22 11:48:35;;;;;;;34.40;20.43;;;;;11.80;100578.00;;;;10008566;29;20961;-77
2023/02/22 11:54:27;;;;;;;30.67;21.53;;;;;11.90;100577.00;;;;10041381;29;20205;-77
2023/02/22 11:59:39;;;;;;;36.23;21.23;;;;;12.40;100578.00;;;;9959664;29;20221;-78
2023/02/22 12:04:55;;;;;;;35.73;22.27;;;;;12.90;100567.00;;;;10039571;29;20193;-77
2023/02/22 12:10:04;;;;;;;31.03;21.73;;;;;13.30;100582.00;;;;10054303;29;20207;-77
2023/02/22 12:15:31;;;;;;;30.33;21.33;;;;;13.30;100574.00;;;;10054809;29;20224;-78
2023/02/22 12:20:44;;;;;;;35.73;21.93;;;;;13.30;100565.00;;;;10039577;29;20208;-77
2023/02/22 12:26:09;;;;;;;33.83;22.53;;;;;13.70;100565.00;;;;10051262;29;20576;-77
2023/02/22 12:31:38;;;;;;;29.67;20.70;;;;;13.70;100573.00;;;;10065212;29;20249;-78
2023/02/22 12:36:46;;;;;;;31.27;22.37;;;;;13.60;100571.00;;;;10085094;29;20260;-77
2023/02/22 12:41:53;;;;;;;30.95;21.83;;;;;13.50;100571.00;;;;10056902;29;20213;-77
2023/02/22 12:46:58;;;;;;;32.20;23.10;;;;;13.30;100578.00;;;;10068323;29;20515;-77
2023/02/22 12:52:12;;;;;;;36.70;23.37;;;;;13.30;100574.00;;;;10060972;29;20204;-77
2023/02/22 12:57:59;;;;;;;33.83;22.67;;;;;13.20;100580.00;;;;10054868;29;20216;-77
2023/02/22 13:03:23;;;;;;;37.57;25.90;;;;;13.20;100579.00;;;;10036968;29;20572;-77
2023/02/22 13:08:35;;;;;;;35.07;23.17;;;;;13.30;100579.00;;;;10023175;29;20238;-77
2023/02/22 13:14:01;;;;;;;30.40;22.77;;;;;13.50;100577.00;;;;10038263;29;20203;-77
2023/02/22 13:19:41;;;;;;;34.93;23.43;;;;;13.70;100579.00;;;;10022468;29;20221;-77
2023/02/22 13:25:21;;;;;;;35.90;24.47;;;;;13.60;100589.00;;;;10036514;29;20225;-77
2023/02/22 13:30:52;;;;;;;34.93;23.53;;;;;13.30;100592.00;;;;10040845;29;20220;-77
2023/02/22 13:36:21;;;;;;;31.30;22.33;;;;;13.00;100582.00;;;;10013531;29;20220;-77
2023/02/22 13:41:39;;;;;;;36.63;24.53;;;;;12.80;100589.00;;;;10043418;29;20693;-78
2023/02/22 13:46:47;;;;;;;34.57;24.23;;;;;12.90;100598.00;;;;10022591;29;20201;-77
2023/02/22 13:51:53;;;;;;;37.33;23.27;;;;;12.70;100583.00;;;;10006458;29;20695;-77
2023/02/22 13:56:56;;;;;;;31.53;24.27;;;;;12.40;100596.00;;;;10024419;29;20217;-77
2023/02/22 14:02:03;;;;;;;35.13;25.27;;;;;12.10;100594.00;;;;9998935;29;20557;-77
2023/02/22 14:07:17;;;;;;;37.63;25.43;;;;;12.00;100595.00;;;;10065068;29;20192;-77
2023/02/22 14:12:28;;;;;;;36.60;24.73;;;;;12.00;100579.00;;;;10049195;29;20211;-77
2023/02/22 14:17:30;;;;;;;37.17;24.97;;;;;12.10;100595.00;;;;10053764;29;20597;-77
2023/02/22 14:22:32;;;;;;;36.73;26.13;;;;;12.00;100595.00;;;;10011946;29;20228;-77
2023/02/22 14:27:41;;;;;;;35.57;24.87;;;;;11.90;100595.00;;;;10059214;29;20205;-77
2023/02/22 14:32:43;;;;;;;41.67;26.73;;;;;11.70;100600.00;;;;10031956;29;20194;-77
2023/02/22 14:37:51;;;;;;;41.00;26.10;;;;;11.60;100598.00;;;;10032837;29;20711;-77
2023/02/22 14:43:10;;;;;;;38.37;24.80;;;;;11.50;100601.00;;;;10054902;29;20213;-77
2023/02/22 14:48:44;;;;;;;38.60;26.13;;;;;11.40;100594.00;;;;10042399;29;20257;-77
2023/02/22 14:53:50;;;;;;;42.20;26.40;;;;;11.30;100596.00;;;;10040967;29;20201;-77
2023/02/22 14:59:24;;;;;;;35.47;25.43;;;;;11.10;100596.00;;;;10029009;29;20355;-77
2023/02/22 15:04:29;;;;;;;42.17;28.00;;;;;11.10;100598.00;;;;10042126;29;20702;-77
2023/02/22 15:09:36;;;;;;;44.97;27.40;;;;;11.00;100590.00;;;;10002748;29;20231;-77
2023/02/22 15:14:39;;;;;;;46.47;29.60;;;;;10.90;100598.00;;;;10079610;29;20212;-77
2023/02/22 15:19:42;;;;;;;43.60;29.23;;;;;10.70;100597.00;;;;10075933;29;20241;-77
2023/02/22 15:24:46;;;;;;;41.30;28.60;;;;;10.60;100596.00;;;;10025966;29;20216;-77
2023/02/22 15:29:48;;;;;;;44.43;28.63;;;;;10.50;100609.00;;;;10036816;29;20238;-77
2023/02/22 15:34:50;;;;;;;46.23;29.83;;;;;10.40;100613.00;;;;10039017;29;20657;-77
2023/02/22 15:39:58;;;;;;;43.50;27.80;;;;;10.30;100612.00;;;;10053691;29;20204;-77
2023/02/22 15:45:00;;;;;;;38.53;24.97;;;;;10.20;100617.00;;;;10025448;29;20190;-77
2023/02/22 15:50:22;;;;;;;43.67;26.93;;;;;10.10;100620.00;;;;10039699;29;20598;-77
2023/02/22 15:55:26;;;;;;;42.40;27.63;;;;;10.00;100622.00;;;;10040552;29;20212;-77
2023/02/22 16:00:35;;;;;;;45.13;27.67;;;;;10.00;100622.00;;;;10008344;29;20204;-77
2023/02/22 16:05:42;;;;;;;45.37;28.23;;;;;9.90;100636.00;;;;10024935;29;20657;-77
2023/02/22 16:10:56;;;;;;;43.03;27.50;;;;;9.80;100636.00;;;;10020516;29;20211;-77
2023/02/22 16:16:02;;;;;;;47.30;28.33;;;;;9.70;100635.00;;;;10065895;29;20248;-77
2023/02/22 16:21:11;;;;;;;52.30;28.93;;;;;9.60;100633.00;;;;10029098;29;20205;-77
2023/02/22 16:26:19;;;;;;;47.33;26.73;;;;;9.50;100639.00;;;;10038806;29;20217;-77
2023/02/22 16:31:25;;;;;;;41.10;23.63;;;;;9.50;100638.00;;;;10001257;29;20216;-77
2023/02/22 16:36:45;;;;;;;42.70;23.90;;;;;9.40;100636.00;;;;10004996;29;20211;-77
2023/02/22 16:41:50;;;;;;;43.07;24.70;;;;;9.30;100645.00;;;;10032392;29;20212;-78
2023/02/22 16:46:54;;;;;;;44.60;23.40;;;;;9.20;100659.00;;;;10031735;29;20196;-77
2023/02/22 16:52:00;;;;;;;44.70;24.70;;;;;9.20;100660.00;;;;10044707;29;20308;-77
2023/02/22 16:57:03;;;;;;;45.13;25.90;;;;;9.20;100658.00;;;;10029636;29;20265;-77
2023/02/22 17:02:09;;;;;;;46.70;24.57;;;;;9.10;100660.00;;;;10027888;29;20200;-77
2023/02/22 17:07:11;;;;;;;56.30;27.93;;;;;9.10;100658.00;;;;9995654;29;20556;-77
2023/02/22 17:12:13;;;;;;;48.70;24.63;;;;;9.10;100667.00;;;;10038049;29;20360;-77
2023/02/22 17:17:16;;;;;;;54.57;27.87;;;;;9.10;100671.00;;;;10012934;29;20331;-78
2023/02/22 17:22:20;;;;;;;52.20;27.27;;;;;9.00;100682.00;;;;10027370;29;20557;-78
2023/02/22 17:27:22;;;;;;;51.67;26.10;;;;;9.00;100679.00;;;;10015125;29;20189;-77
2023/02/22 17:32:24;;;;;;;57.53;27.40;;;;;9.00;100679.00;;;;10015474;29;20211;-77
2023/02/22 17:37:26;;;;;;;53.97;27.93;;;;;9.00;100690.00;;;;10037440;29;20217;-78
2023/02/22 17:42:28;;;;;;;57.10;28.20;;;;;9.00;100686.00;;;;10026913;29;20206;-78
2023/02/22 17:47:30;;;;;;;63.07;31.90;;;;;8.90;100691.00;;;;9995430;29;20575;-77
2023/02/22 17:52:32;;;;;;;56.30;29.17;;;;;8.90;100690.00;;;;10025194;29;20201;-77
2023/02/22 17:57:34;;;;;;;56.73;28.63;;;;;8.90;100698.00;;;;10008102;29;20269;-77
2023/02/22 18:02:43;;;;;;;57.10;28.53;;;;;8.90;100698.00;;;;10050541;29;20222;-78
2023/02/22 18:07:45;;;;;;;56.73;28.20;;;;;8.90;100694.00;;;;10037353;29;20205;-78
2023/02/22 18:12:47;;;;;;;62.67;30.80;;;;;8.80;100697.00;;;;10015872;29;20568;-77
2023/02/22 18:17:49;;;;;;;56.83;29.37;;;;;8.80;100699.00;;;;10034728;29;20217;-78
2023/02/22 18:22:51;;;;;;;58.47;27.60;;;;;8.80;100702.00;;;;10021468;29;20601;-77
2023/02/22 18:27:53;;;;;;;55.53;27.90;;;;;8.80;100700.00;;;;10039580;29;20225;-78
2023/02/22 18:32:55;;;;;;;57.60;28.27;;;;;8.80;100700.00;;;;10036182;29;20198;-77
2023/02/22 18:37:57;;;;;;;60.73;29.87;;;;;8.80;100693.00;;;;10006125;29;20799;-77
2023/02/22 18:42:59;;;;;;;66.30;30.37;;;;;8.70;100706.00;;;;10033041;29;20642;-78
2023/02/22 18:48:01;;;;;;;57.83;29.73;;;;;8.70;100697.00;;;;10038784;29;20641;-78
2023/02/22 18:53:03;;;;;;;71.53;30.70;;;;;8.60;100700.00;;;;10040914;29;20687;-78
2023/02/22 18:58:05;;;;;;;67.63;31.70;;;;;8.60;100690.00;;;;10013434;29;20332;-78
2023/02/22 19:03:07;;;;;;;63.67;31.63;;;;;8.60;100694.00;;;;10048663;29;20189;-78
2023/02/22 19:08:10;;;;;;;68.43;33.40;;;;;8.60;100692.00;;;;10016561;29;20261;-78
2023/02/22 19:13:12;;;;;;;68.87;29.37;;;;;8.60;100681.00;;;;10013198;29;20194;-78
2023/02/22 19:18:13;;;;;;;66.60;32.30;;;;;8.60;100691.00;;;;10013522;29;20280;-78
2023/02/22 19:23:15;;;;;;;76.73;32.90;;;;;8.50;100688.00;;;;10012513;29;20578;-78
2023/02/22 19:28:17;;;;;;;81.67;34.20;;;;;8.50;100686.00;;;;10030954;29;20654;-78
2023/02/22 19:33:24;;;;;;;72.73;32.87;;;;;8.50;100702.00;;;;10027275;29;20225;-78
2023/02/22 19:38:26;;;;;;;76.23;33.27;;;;;8.60;100694.00;;;;10010629;29;20206;-78
2023/02/22 19:43:28;;;;;;;77.63;33.57;;;;;8.60;100690.00;;;;10027897;29;20201;-78
2023/02/22 19:48:30;;;;;;;69.43;32.87;;;;;8.60;100689.00;;;;10029001;29;20204;-78
2023/02/22 19:53:33;;;;;;;71.83;34.13;;;;;8.60;100697.00;;;;9998902;29;20749;-77
2023/02/22 19:58:38;;;;;;;71.30;34.07;;;;;8.60;100690.00;;;;10027735;29;20211;-78
2023/02/22 20:03:41;;;;;;;70.00;32.87;;;;;8.60;100699.00;;;;10029497;29;20222;-78
2023/02/22 20:08:43;;;;;;;76.00;32.63;;;;;8.60;100694.00;;;;10002377;29;20672;-78
2023/02/22 20:13:45;;;;;;;67.30;31.23;;;;;8.60;100687.00;;;;9999428;29;20393;-78
2023/02/22 20:18:48;;;;;;;65.13;30.43;;;;;8.60;100686.00;;;;10032529;29;20217;-78
2023/02/22 20:23:50;;;;;;;76.77;34.30;;;;;8.60;100680.00;;;;10043614;29;20220;-78
2023/02/22 20:28:52;;;;;;;69.30;32.83;;;;;8.60;100686.00;;;;10037101;29;20205;-78
2023/02/22 20:33:56;;;;;;;75.33;32.77;;;;;8.60;100689.00;;;;10031560;29;20552;-78
2023/02/22 20:38:59;;;;;;;69.37;33.33;;;;;8.60;100688.00;;;;10037626;29;20233;-78
2023/02/22 20:44:02;;;;;;;66.43;33.07;;;;;8.60;100692.00;;;;10013203;29;20205;-78
2023/02/22 20:49:07;;;;;;;72.27;33.87;;;;;8.60;100690.00;;;;10021936;29;20526;-78
2023/02/22 20:54:10;;;;;;;76.70;35.37;;;;;8.60;100694.00;;;;10026530;29;20205;-78
2023/02/22 20:59:15;;;;;;;71.87;34.23;;;;;8.60;100699.00;;;;10027819;29;20220;-78
2023/02/22 21:04:20;;;;;;;73.13;35.77;;;;;8.60;100698.00;;;;10011968;29;20573;-78
2023/02/22 21:09:22;;;;;;;74.13;34.30;;;;;8.60;100701.00;;;;10023934;29;20201;-78
2023/02/22 21:14:24;;;;;;;67.60;31.40;;;;;8.60;100695.00;;;;10004769;29;20202;-78
2023/02/22 21:19:26;;;;;;;75.40;34.30;;;;;8.50;100699.00;;;;10002958;29;20251;-78
2023/02/22 21:24:28;;;;;;;70.97;34.07;;;;;8.50;100705.00;;;;10010780;29;20221;-78
2023/02/22 21:29:33;;;;;;;67.73;33.27;;;;;8.40;100699.00;;;;9990755;29;20203;-78
2023/02/22 21:34:35;;;;;;;73.53;36.47;;;;;8.40;100704.00;;;;10009258;29;20570;-79
2023/02/22 21:39:37;;;;;;;77.83;35.97;;;;;8.30;100702.00;;;;10024851;29;20335;-78
2023/02/22 21:44:39;;;;;;;72.33;35.13;;;;;8.30;100703.00;;;;10021849;29;20266;-78
2023/02/22 21:49:41;;;;;;;78.97;36.23;;;;;8.30;100704.00;;;;10007349;29;20262;-77
2023/02/22 21:54:44;;;;;;;74.03;36.13;;;;;8.30;100700.00;;;;10002537;29;20208;-77
2023/02/22 21:59:47;;;;;;;78.73;38.07;;;;;8.30;100697.00;;;;9988906;29;20301;-78
2023/02/22 22:04:49;;;;;;;79.37;37.07;;;;;8.30;100704.00;;;;9987547;29;20197;-78
2023/02/22 22:09:55;;;;;;;80.37;37.40;;;;;8.30;100697.00;;;;10007711;29;20249;-77
2023/02/22 22:14:57;;;;;;;85.17;38.50;;;;;8.30;100696.00;;;;10014810;29;20197;-77
2023/02/22 22:19:59;;;;;;;84.97;36.97;;;;;8.30;100699.00;;;;10004682;29;20217;-77
2023/02/22 22:25:02;;;;;;;85.97;37.27;;;;;8.30;100693.00;;;;10004009;29;20241;-78
2023/02/22 22:30:04;;;;;;;91.60;38.73;;;;;8.40;100694.00;;;;10003593;29;20197;-78
2023/02/22 22:35:13;;;;;;;86.10;38.87;;;;;8.40;100695.00;;;;10030477;29;20244;-78
2023/02/22 22:40:16;;;;;;;82.97;38.07;;;;;8.40;100695.00;;;;10025563;29;20221;-78
2023/02/22 22:45:19;;;;;;;81.80;36.87;;;;;8.40;100692.00;;;;10014044;29;20301;-78
2023/02/22 22:50:25;;;;;;;71.50;34.77;;;;;8.40;100693.00;;;;10013069;29;20196;-78
2023/02/22 22:55:27;;;;;;;68.83;33.23;;;;;8.40;100691.00;;;;10014244;29;20570;-78
2023/02/22 23:00:36;;;;;;;68.73;33.27;;;;;8.40;100692.00;;;;9994957;29;20222;-78
2023/02/22 23:05:41;;;;;;;64.30;33.80;;;;;8.40;100695.00;;;;10009435;29;20233;-77
2023/02/22 23:10:43;;;;;;;62.57;31.67;;;;;8.40;100711.00;;;;10023536;29;20209;-77
2023/02/22 23:15:46;;;;;;;67.17;33.73;;;;;8.30;100701.00;;;;10012647;29;20209;-78
2023/02/22 23:20:53;;;;;;;59.43;30.53;;;;;8.30;100704.00;;;;10002674;29;20266;-78
2023/02/22 23:26:10;;;;;;;58.10;30.57;;;;;8.30;100694.00;;;;10021835;29;20252;-78
2023/02/22 23:31:16;;;;;;;56.37;29.20;;;;;8.30;100702.00;;;;10040165;29;20201;-78
2023/02/22 23:36:19;;;;;;;56.37;29.57;;;;;8.30;100703.00;;;;10033585;29;20205;-79
2023/02/22 23:41:23;;;;;;;44.50;27.30;;;;;8.30;100703.00;;;;10041619;29;20233;-78
2023/02/22 23:46:31;;;;;;;50.00;28.47;;;;;8.30;100709.00;;;;9987220;29;20315;-78
2023/02/22 23:51:38;;;;;;;47.20;27.70;;;;;8.30;100713.00;;;;10014505;29;20205;-79
2023/02/22 23:56:55;;;;;;;47.00;28.03;;;;;8.30;100713.00;;;;10028822;29;20738;-78
